sensor_id;sensor_type;location;lat;lon;timestamp;P1;P2;P0
72307;PMS5003;60257;42.638;23.376;2023-02-01T00:01:38;24.50;22.00;14.00
72307;PMS5003;60257;42.638;23.376;2023-02-01T00:04:03;19.25;17.50;9.50
72307;PMS5003;60257;42.638;23.376;2023-02-01T00:06:29;24.00;17.00;11.00
72307;PMS5003;60257;42.638;23.376;2023-02-01T00:08:54;22.00;22.00;12.50
72307;PMS5003;60257;42.638;23.376;2023-02-01T00:11:21;22.50;22.50;14.00
72307;PMS5003;60257;42.638;23.376;2023-02-01T00:13:48;19.50;17.00;11.00
72307;PMS5003;60257;42.638;23.376;2023-02-01T00:16:18;14.75;13.75;9.50
72307;PMS5003;60257;42.638;23.376;2023-02-01T00:18:46;24.50;23.50;16.00
72307;PMS5003;60257;42.638;23.376;2023-02-01T00:21:13;22.25;19.00;11.50
72307;PMS5003;60257;42.638;23.376;2023-02-01T00:23:40;23.00;21.00;13.25
72307;PMS5003;60257;42.638;23.376;2023-02-01T00:26:07;20.00;19.00;11.25
72307;PMS5003;60257;42.638;23.376;2023-02-01T00:28:37;23.00;22.00;13.00
72307;PMS5003;60257;42.638;23.376;2023-02-01T00:31:03;19.75;19.00;10.25
72307;PMS5003;60257;42.638;23.376;2023-02-01T00:33:29;22.00;21.25;12.50
72307;PMS5003;60257;42.638;23.376;2023-02-01T00:35:56;19.25;19.25;10.50
72307;PMS5003;60257;42.638;23.376;2023-02-01T00:38:23;25.25;23.25;16.50
72307;PMS5003;60257;42.638;23.376;2023-02-01T00:40:50;24.25;21.00;15.00
72307;PMS5003;60257;42.638;23.376;2023-02-01T00:43:15;26.00;24.75;12.50
72307;PMS5003;60257;42.638;23.376;2023-02-01T00:45:41;25.75;19.00;7.75
72307;PMS5003;60257;42.638;23.376;2023-02-01T00:48:06;20.00;20.00;12.00
72307;PMS5003;60257;42.638;23.376;2023-02-01T00:50:31;28.75;26.25;13.75
72307;PMS5003;60257;42.638;23.376;2023-02-01T00:52:57;27.75;21.50;13.75
72307;PMS5003;60257;42.638;23.376;2023-02-01T00:55:22;18.75;16.00;10.00
72307;PMS5003;60257;42.638;23.376;2023-02-01T00:57:48;21.75;17.50;10.00
72307;PMS5003;60257;42.638;23.376;2023-02-01T01:00:13;20.00;19.25;10.75
72307;PMS5003;60257;42.638;23.376;2023-02-01T01:02:39;19.00;19.00;10.25
72307;PMS5003;60257;42.638;23.376;2023-02-01T01:05:06;23.00;19.00;12.50
72307;PMS5003;60257;42.638;23.376;2023-02-01T01:07:31;22.00;19.00;10.00
72307;PMS5003;60257;42.638;23.376;2023-02-01T01:09:57;20.00;19.00;10.00
72307;PMS5003;60257;42.638;23.376;2023-02-01T01:12:22;21.50;20.25;11.25
72307;PMS5003;60257;42.638;23.376;2023-02-01T01:14:48;27.00;22.00;12.50
72307;PMS5003;60257;42.638;23.376;2023-02-01T01:17:13;16.50;16.50;9.50
72307;PMS5003;60257;42.638;23.376;2023-02-01T01:19:38;22.25;20.75;12.00
72307;PMS5003;60257;42.638;23.376;2023-02-01T01:22:04;19.00;19.00;10.00
72307;PMS5003;60257;42.638;23.376;2023-02-01T01:24:29;11.00;11.00;4.00
72307;PMS5003;60257;42.638;23.376;2023-02-01T01:26:55;21.25;19.00;13.00
72307;PMS5003;60257;42.638;23.376;2023-02-01T01:29:21;16.75;16.00;9.00
72307;PMS5003;60257;42.638;23.376;2023-02-01T01:31:46;10.50;10.50;4.00
72307;PMS5003;60257;42.638;23.376;2023-02-01T01:34:11;18.25;14.75;9.00
72307;PMS5003;60257;42.638;23.376;2023-02-01T01:36:37;15.50;15.50;8.00
72307;PMS5003;60257;42.638;23.376;2023-02-01T01:39:02;12.50;12.50;7.25
72307;PMS5003;60257;42.638;23.376;2023-02-01T01:41:29;14.00;13.00;8.00
72307;PMS5003;60257;42.638;23.376;2023-02-01T01:43:59;17.75;14.25;8.75
72307;PMS5003;60257;42.638;23.376;2023-02-01T01:46:28;14.50;14.50;8.25
72307;PMS5003;60257;42.638;23.376;2023-02-01T01:49:00;18.50;15.50;9.50
72307;PMS5003;60257;42.638;23.376;2023-02-01T01:51:32;16.25;14.75;9.75
72307;PMS5003;60257;42.638;23.376;2023-02-01T01:54:05;22.00;17.00;10.50
72307;PMS5003;60257;42.638;23.376;2023-02-01T01:56:36;12.25;12.25;7.50
72307;PMS5003;60257;42.638;23.376;2023-02-01T01:59:03;18.25;18.25;10.50
72307;PMS5003;60257;42.638;23.376;2023-02-01T02:01:30;16.00;15.25;10.00
72307;PMS5003;60257;42.638;23.376;2023-02-01T02:03:56;15.75;15.75;9.00
72307;PMS5003;60257;42.638;23.376;2023-02-01T02:09:20;16.00;16.00;9.00
72307;PMS5003;60257;42.638;23.376;2023-02-01T02:11:46;13.00;11.00;7.00
72307;PMS5003;60257;42.638;23.376;2023-02-01T02:14:11;13.00;13.00;7.00
72307;PMS5003;60257;42.638;23.376;2023-02-01T02:16:50;18.00;15.00;9.75
72307;PMS5003;60257;42.638;23.376;2023-02-01T02:41:16;15.50;13.50;9.50
72307;PMS5003;60257;42.638;23.376;2023-02-01T02:47:10;3.00;3.00;2.00
72307;PMS5003;60257;42.638;23.376;2023-02-01T02:52:50;12.50;10.50;7.50
72307;PMS5003;60257;42.638;23.376;2023-02-01T02:55:40;11.00;7.00;5.00
72307;PMS5003;60257;42.638;23.376;2023-02-01T02:58:08;15.75;13.00;6.50
72307;PMS5003;60257;42.638;23.376;2023-02-01T03:00:56;13.00;12.00;9.00
72307;PMS5003;60257;42.638;23.376;2023-02-01T03:03:40;14.00;14.00;6.50
72307;PMS5003;60257;42.638;23.376;2023-02-01T03:06:26;6.50;4.00;1.00
72307;PMS5003;60257;42.638;23.376;2023-02-01T03:08:53;12.50;11.00;6.75
72307;PMS5003;60257;42.638;23.376;2023-02-01T03:11:22;14.00;14.00;6.75
72307;PMS5003;60257;42.638;23.376;2023-02-01T03:13:52;11.75;11.75;6.00
72307;PMS5003;60257;42.638;23.376;2023-02-01T03:16:27;8.00;6.50;3.00
72307;PMS5003;60257;42.638;23.376;2023-02-01T03:19:08;9.00;7.00;6.00
72307;PMS5003;60257;42.638;23.376;2023-02-01T03:24:04;5.50;4.00;2.00
72307;PMS5003;60257;42.638;23.376;2023-02-01T03:26:36;9.50;8.00;4.00
72307;PMS5003;60257;42.638;23.376;2023-02-01T03:29:08;11.00;9.50;6.00
72307;PMS5003;60257;42.638;23.376;2023-02-01T03:31:41;9.50;9.50;6.00
72307;PMS5003;60257;42.638;23.376;2023-02-01T03:34:06;11.00;9.75;5.00
72307;PMS5003;60257;42.638;23.376;2023-02-01T03:36:37;9.00;9.00;6.00
72307;PMS5003;60257;42.638;23.376;2023-02-01T03:42:19;10.50;7.00;5.00
72307;PMS5003;60257;42.638;23.376;2023-02-01T03:45:01;12.25;9.50;6.00
72307;PMS5003;60257;42.638;23.376;2023-02-01T03:47:37;8.25;8.25;4.00
72307;PMS5003;60257;42.638;23.376;2023-02-01T03:50:12;12.50;9.00;4.50
72307;PMS5003;60257;42.638;23.376;2023-02-01T03:52:45;7.75;7.75;4.75
72307;PMS5003;60257;42.638;23.376;2023-02-01T03:55:16;10.00;10.00;6.00
72307;PMS5003;60257;42.638;23.376;2023-02-01T03:57:48;15.75;10.75;6.75
72307;PMS5003;60257;42.638;23.376;2023-02-01T04:00:21;11.50;11.25;7.00
72307;PMS5003;60257;42.638;23.376;2023-02-01T04:02:49;10.00;7.50;5.00
72307;PMS5003;60257;42.638;23.376;2023-02-01T04:05:15;10.50;9.25;4.00
72307;PMS5003;60257;42.638;23.376;2023-02-01T04:07:40;8.25;8.25;7.25
72307;PMS5003;60257;42.638;23.376;2023-02-01T04:10:06;11.50;9.25;6.50
72307;PMS5003;60257;42.638;23.376;2023-02-01T04:12:33;9.25;9.25;5.00
72307;PMS5003;60257;42.638;23.376;2023-02-01T04:14:58;9.50;8.50;6.50
72307;PMS5003;60257;42.638;23.376;2023-02-01T04:17:24;9.00;8.50;4.00
72307;PMS5003;60257;42.638;23.376;2023-02-01T04:19:49;10.25;10.00;6.00
72307;PMS5003;60257;42.638;23.376;2023-02-01T04:22:14;11.00;9.50;5.25
72307;PMS5003;60257;42.638;23.376;2023-02-01T04:24:40;9.75;9.75;4.25
72307;PMS5003;60257;42.638;23.376;2023-02-01T04:27:05;10.75;9.75;6.75
72307;PMS5003;60257;42.638;23.376;2023-02-01T04:29:31;18.50;13.50;9.75
72307;PMS5003;60257;42.638;23.376;2023-02-01T04:31:56;17.00;12.75;8.50
72307;PMS5003;60257;42.638;23.376;2023-02-01T04:34:22;13.00;13.00;7.50
72307;PMS5003;60257;42.638;23.376;2023-02-01T04:36:50;17.00;14.00;8.50
72307;PMS5003;60257;42.638;23.376;2023-02-01T04:39:16;12.50;12.50;6.00
72307;PMS5003;60257;42.638;23.376;2023-02-01T04:41:42;15.50;15.50;9.50
72307;PMS5003;60257;42.638;23.376;2023-02-01T04:44:09;12.50;12.50;9.00
72307;PMS5003;60257;42.638;23.376;2023-02-01T04:46:39;14.50;13.50;7.75
72307;PMS5003;60257;42.638;23.376;2023-02-01T04:49:04;14.75;12.00;7.00
72307;PMS5003;60257;42.638;23.376;2023-02-01T04:51:30;18.00;16.00;7.25
72307;PMS5003;60257;42.638;23.376;2023-02-01T04:53:55;17.75;16.25;9.50
72307;PMS5003;60257;42.638;23.376;2023-02-01T04:56:21;14.75;12.50;10.00
72307;PMS5003;60257;42.638;23.376;2023-02-01T04:58:46;20.00;19.50;12.00
72307;PMS5003;60257;42.638;23.376;2023-02-01T05:01:12;21.75;19.75;15.50
72307;PMS5003;60257;42.638;23.376;2023-02-01T05:03:37;21.50;18.25;12.25
72307;PMS5003;60257;42.638;23.376;2023-02-01T05:06:03;20.75;17.00;10.00
72307;PMS5003;60257;42.638;23.376;2023-02-01T05:08:32;18.75;16.25;10.00
72307;PMS5003;60257;42.638;23.376;2023-02-01T05:10:58;20.50;17.25;11.50
72307;PMS5003;60257;42.638;23.376;2023-02-01T05:13:24;18.00;15.50;8.00
72307;PMS5003;60257;42.638;23.376;2023-02-01T05:16:08;19.00;14.25;8.75
72307;PMS5003;60257;42.638;23.376;2023-02-01T05:18:34;16.50;15.50;10.50
72307;PMS5003;60257;42.638;23.376;2023-02-01T05:20:59;20.25;20.25;13.00
72307;PMS5003;60257;42.638;23.376;2023-02-01T05:23:25;16.75;16.75;11.00
72307;PMS5003;60257;42.638;23.376;2023-02-01T05:25:50;19.25;18.50;12.25
72307;PMS5003;60257;42.638;23.376;2023-02-01T05:28:16;10.25;10.25;5.50
72307;PMS5003;60257;42.638;23.376;2023-02-01T05:30:41;20.75;19.25;13.00
72307;PMS5003;60257;42.638;23.376;2023-02-01T05:33:07;22.00;21.75;10.00
72307;PMS5003;60257;42.638;23.376;2023-02-01T05:35:32;22.75;17.75;10.75
72307;PMS5003;60257;42.638;23.376;2023-02-01T05:37:58;23.75;23.25;14.00
72307;PMS5003;60257;42.638;23.376;2023-02-01T05:40:23;21.25;18.25;12.50
72307;PMS5003;60257;42.638;23.376;2023-02-01T05:42:49;18.50;15.00;7.00
72307;PMS5003;60257;42.638;23.376;2023-02-01T05:45:14;19.75;19.25;12.50
72307;PMS5003;60257;42.638;23.376;2023-02-01T05:47:40;22.75;21.00;13.00
72307;PMS5003;60257;42.638;23.376;2023-02-01T05:50:05;30.00;23.25;11.50
72307;PMS5003;60257;42.638;23.376;2023-02-01T05:52:32;15.00;15.00;9.25
72307;PMS5003;60257;42.638;23.376;2023-02-01T05:54:58;23.50;23.25;13.00
72307;PMS5003;60257;42.638;23.376;2023-02-01T05:57:23;15.00;14.50;7.25
72307;PMS5003;60257;42.638;23.376;2023-02-01T05:59:48;19.75;18.00;10.75
72307;PMS5003;60257;42.638;23.376;2023-02-01T06:02:14;24.75;22.75;12.00
72307;PMS5003;60257;42.638;23.376;2023-02-01T06:04:41;20.00;19.50;14.25
72307;PMS5003;60257;42.638;23.376;2023-02-01T06:07:07;35.75;34.50;21.50
72307;PMS5003;60257;42.638;23.376;2023-02-01T06:09:35;20.00;18.75;12.00
72307;PMS5003;60257;42.638;23.376;2023-02-01T06:12:01;21.50;18.50;13.50
72307;PMS5003;60257;42.638;23.376;2023-02-01T06:14:28;15.00;15.00;8.50
72307;PMS5003;60257;42.638;23.376;2023-02-01T06:16:54;15.00;13.50;8.00
72307;PMS5003;60257;42.638;23.376;2023-02-01T06:19:20;15.50;15.50;10.00
72307;PMS5003;60257;42.638;23.376;2023-02-01T06:21:46;15.75;14.00;10.50
72307;PMS5003;60257;42.638;23.376;2023-02-01T06:24:12;12.75;11.00;6.00
72307;PMS5003;60257;42.638;23.376;2023-02-01T06:26:38;20.00;19.00;12.50
72307;PMS5003;60257;42.638;23.376;2023-02-01T06:29:05;20.50;17.00;11.00
72307;PMS5003;60257;42.638;23.376;2023-02-01T06:31:31;10.00;8.00;3.50
72307;PMS5003;60257;42.638;23.376;2023-02-01T06:33:57;16.00;14.00;9.00
72307;PMS5003;60257;42.638;23.376;2023-02-01T06:36:23;15.50;13.75;10.00
72307;PMS5003;60257;42.638;23.376;2023-02-01T06:38:48;14.50;14.50;9.50
72307;PMS5003;60257;42.638;23.376;2023-02-01T06:41:14;14.25;13.00;7.00
72307;PMS5003;60257;42.638;23.376;2023-02-01T06:43:40;16.00;13.75;9.50
72307;PMS5003;60257;42.638;23.376;2023-02-01T06:46:10;20.50;16.00;10.25
72307;PMS5003;60257;42.638;23.376;2023-02-01T06:48:37;12.00;10.50;7.00
72307;PMS5003;60257;42.638;23.376;2023-02-01T06:51:03;23.75;21.25;16.00
72307;PMS5003;60257;42.638;23.376;2023-02-01T06:53:30;11.50;11.00;5.50
72307;PMS5003;60257;42.638;23.376;2023-02-01T06:56:00;17.75;10.50;7.00
72307;PMS5003;60257;42.638;23.376;2023-02-01T06:58:30;10.75;10.50;4.75
72307;PMS5003;60257;42.638;23.376;2023-02-01T07:00:57;16.00;12.50;7.00
72307;PMS5003;60257;42.638;23.376;2023-02-01T07:03:23;9.25;8.50;5.00
72307;PMS5003;60257;42.638;23.376;2023-02-01T07:05:49;14.50;13.00;6.75
72307;PMS5003;60257;42.638;23.376;2023-02-01T07:08:14;9.00;9.00;5.00
72307;PMS5003;60257;42.638;23.376;2023-02-01T07:10:40;10.00;10.00;7.00
72307;PMS5003;60257;42.638;23.376;2023-02-01T07:13:05;8.50;8.50;4.00
72307;PMS5003;60257;42.638;23.376;2023-02-01T07:15:31;11.25;10.25;6.50
72307;PMS5003;60257;42.638;23.376;2023-02-01T07:17:56;6.25;5.00;4.00
72307;PMS5003;60257;42.638;23.376;2023-02-01T07:20:22;16.50;14.75;7.00
72307;PMS5003;60257;42.638;23.376;2023-02-01T07:22:48;32.50;31.25;18.00
72307;PMS5003;60257;42.638;23.376;2023-02-01T07:25:14;12.50;9.00;4.25
72307;PMS5003;60257;42.638;23.376;2023-02-01T07:27:39;10.75;10.00;4.00
72307;PMS5003;60257;42.638;23.376;2023-02-01T07:30:05;9.00;7.00;4.25
72307;PMS5003;60257;42.638;23.376;2023-02-01T07:32:31;15.25;11.00;7.00
72307;PMS5003;60257;42.638;23.376;2023-02-01T07:34:57;11.00;10.50;7.00
72307;PMS5003;60257;42.638;23.376;2023-02-01T07:37:23;12.75;11.00;7.25
72307;PMS5003;60257;42.638;23.376;2023-02-01T07:39:49;13.00;11.00;6.50
72307;PMS5003;60257;42.638;23.376;2023-02-01T07:42:15;11.25;10.75;5.00
72307;PMS5003;60257;42.638;23.376;2023-02-01T07:44:41;10.50;10.00;6.50
72307;PMS5003;60257;42.638;23.376;2023-02-01T07:47:06;14.75;11.00;5.00
72307;PMS5003;60257;42.638;23.376;2023-02-01T07:49:32;11.00;10.00;5.00
72307;PMS5003;60257;42.638;23.376;2023-02-01T07:51:57;12.00;12.00;4.00
72307;PMS5003;60257;42.638;23.376;2023-02-01T07:54:23;8.50;8.50;5.00
72307;PMS5003;60257;42.638;23.376;2023-02-01T07:56:48;13.00;12.50;5.00
72307;PMS5003;60257;42.638;23.376;2023-02-01T07:59:14;11.00;11.00;7.00
72307;PMS5003;60257;42.638;23.376;2023-02-01T08:01:40;7.50;2.00;0.00
72307;PMS5003;60257;42.638;23.376;2023-02-01T08:04:07;17.75;15.75;7.50
72307;PMS5003;60257;42.638;23.376;2023-02-01T08:06:35;17.33;15.67;8.67
72307;PMS5003;60257;42.638;23.376;2023-02-01T08:09:01;13.33;10.33;5.00
72307;PMS5003;60257;42.638;23.376;2023-02-01T08:11:28;10.67;8.67;4.67
72307;PMS5003;60257;42.638;23.376;2023-02-01T08:13:54;15.00;14.00;8.00
72307;PMS5003;60257;42.638;23.376;2023-02-01T08:16:20;19.25;17.75;8.75
72307;PMS5003;60257;42.638;23.376;2023-02-01T08:18:46;15.00;12.67;7.00
72307;PMS5003;60257;42.638;23.376;2023-02-01T08:21:16;15.00;15.00;11.00
72307;PMS5003;60257;42.638;23.376;2023-02-01T08:23:43;13.33;11.00;7.33
72307;PMS5003;60257;42.638;23.376;2023-02-01T08:26:13;9.67;9.67;7.00
72307;PMS5003;60257;42.638;23.376;2023-02-01T08:28:47;12.00;12.00;8.00
72307;PMS5003;60257;42.638;23.376;2023-02-01T08:31:15;12.67;9.67;7.00
72307;PMS5003;60257;42.638;23.376;2023-02-01T08:33:42;9.33;9.33;5.00
72307;PMS5003;60257;42.638;23.376;2023-02-01T08:36:10;9.00;9.00;7.00
72307;PMS5003;60257;42.638;23.376;2023-02-01T08:38:37;8.67;8.67;4.00
72307;PMS5003;60257;42.638;23.376;2023-02-01T08:41:08;14.00;12.00;7.00
72307;PMS5003;60257;42.638;23.376;2023-02-01T08:43:38;9.33;9.33;5.67
72307;PMS5003;60257;42.638;23.376;2023-02-01T08:46:04;10.33;10.33;7.00
72307;PMS5003;60257;42.638;23.376;2023-02-01T08:48:30;11.00;8.67;5.67
72307;PMS5003;60257;42.638;23.376;2023-02-01T08:50:56;13.33;10.67;7.00
72307;PMS5003;60257;42.638;23.376;2023-02-01T08:53:22;8.67;8.67;6.33
72307;PMS5003;60257;42.638;23.376;2023-02-01T08:55:47;6.00;6.00;4.67
72307;PMS5003;60257;42.638;23.376;2023-02-01T08:58:13;9.67;8.33;4.00
72307;PMS5003;60257;42.638;23.376;2023-02-01T09:00:39;11.00;8.00;4.33
72307;PMS5003;60257;42.638;23.376;2023-02-01T09:03:05;10.33;8.00;5.00
72307;PMS5003;60257;42.638;23.376;2023-02-01T09:05:30;7.00;7.00;4.00
72307;PMS5003;60257;42.638;23.376;2023-02-01T09:07:56;9.67;8.67;4.33
72307;PMS5003;60257;42.638;23.376;2023-02-01T09:10:22;9.00;8.00;5.00
72307;PMS5003;60257;42.638;23.376;2023-02-01T09:12:48;9.00;8.00;4.33
72307;PMS5003;60257;42.638;23.376;2023-02-01T09:15:13;8.67;8.67;4.00
72307;PMS5003;60257;42.638;23.376;2023-02-01T09:17:39;10.33;9.00;5.00
72307;PMS5003;60257;42.638;23.376;2023-02-01T09:20:06;8.00;8.00;5.00
72307;PMS5003;60257;42.638;23.376;2023-02-01T09:22:32;11.00;9.00;5.00
72307;PMS5003;60257;42.638;23.376;2023-02-01T09:24:58;9.33;6.67;5.00
72307;PMS5003;60257;42.638;23.376;2023-02-01T09:27:23;9.67;8.00;6.67
72307;PMS5003;60257;42.638;23.376;2023-02-01T09:29:49;8.00;8.00;2.00
72307;PMS5003;60257;42.638;23.376;2023-02-01T09:32:17;10.00;10.00;5.00
72307;PMS5003;60257;42.638;23.376;2023-02-01T09:34:44;6.00;6.00;4.33
72307;PMS5003;60257;42.638;23.376;2023-02-01T09:37:09;6.00;6.00;2.00
72307;PMS5003;60257;42.638;23.376;2023-02-01T09:39:35;10.00;6.00;4.67
72307;PMS5003;60257;42.638;23.376;2023-02-01T09:47:10;5.33;5.33;4.00
72307;PMS5003;60257;42.638;23.376;2023-02-01T09:49:39;8.67;8.67;6.00
72307;PMS5003;60257;42.638;23.376;2023-02-01T09:52:13;5.33;5.33;0.67
72307;PMS5003;60257;42.638;23.376;2023-02-01T09:54:42;4.00;4.00;1.00
72307;PMS5003;60257;42.638;23.376;2023-02-01T09:57:16;9.00;7.33;4.00
72307;PMS5003;60257;42.638;23.376;2023-02-01T10:00:09;16.00;12.00;6.00
72307;PMS5003;60257;42.638;23.376;2023-02-01T10:02:41;11.00;9.67;5.00
72307;PMS5003;60257;42.638;23.376;2023-02-01T10:05:11;8.00;6.00;4.33
72307;PMS5003;60257;42.638;23.376;2023-02-01T10:10:18;7.00;6.67;3.00
72307;PMS5003;60257;42.638;23.376;2023-02-01T10:15:29;9.00;9.00;6.00
72307;PMS5003;60257;42.638;23.376;2023-02-01T10:23:54;7.00;7.00;5.00
72307;PMS5003;60257;42.638;23.376;2023-02-01T10:26:24;8.33;5.67;4.00
72307;PMS5003;60257;42.638;23.376;2023-02-01T10:28:52;8.00;6.00;4.00
72307;PMS5003;60257;42.638;23.376;2023-02-01T10:31:21;8.67;8.67;5.00
72307;PMS5003;60257;42.638;23.376;2023-02-01T10:33:51;11.00;10.33;5.00
72307;PMS5003;60257;42.638;23.376;2023-02-01T10:36:23;5.00;5.00;2.00
72307;PMS5003;60257;42.638;23.376;2023-02-01T10:38:55;11.00;10.00;6.00
72307;PMS5003;60257;42.638;23.376;2023-02-01T10:41:23;10.00;10.00;5.00
72307;PMS5003;60257;42.638;23.376;2023-02-01T10:44:03;10.00;8.00;4.67
72307;PMS5003;60257;42.638;23.376;2023-02-01T10:46:33;5.00;5.00;2.00
72307;PMS5003;60257;42.638;23.376;2023-02-01T10:49:00;9.00;8.00;4.00
72307;PMS5003;60257;42.638;23.376;2023-02-01T10:54:16;10.00;6.00;4.00
72307;PMS5003;60257;42.638;23.376;2023-02-01T10:56:45;5.67;5.67;4.00
72307;PMS5003;60257;42.638;23.376;2023-02-01T10:59:23;8.00;8.00;4.00
72307;PMS5003;60257;42.638;23.376;2023-02-01T11:01:51;8.00;6.00;4.00
72307;PMS5003;60257;42.638;23.376;2023-02-01T11:04:24;10.00;9.00;5.33
72307;PMS5003;60257;42.638;23.376;2023-02-01T11:07:12;11.33;9.67;4.00
72307;PMS5003;60257;42.638;23.376;2023-02-01T11:09:42;5.33;5.33;2.67
72307;PMS5003;60257;42.638;23.376;2023-02-01T11:15:20;9.33;8.00;4.67
72307;PMS5003;60257;42.638;23.376;2023-02-01T11:17:45;8.67;8.67;5.00
72307;PMS5003;60257;42.638;23.376;2023-02-01T11:20:15;11.33;9.00;5.00
72307;PMS5003;60257;42.638;23.376;2023-02-01T11:22:52;9.00;8.33;4.00
72307;PMS5003;60257;42.638;23.376;2023-02-01T11:25:21;12.00;7.33;4.00
72307;PMS5003;60257;42.638;23.376;2023-02-01T11:27:48;7.33;6.00;5.67
72307;PMS5003;60257;42.638;23.376;2023-02-01T11:33:05;6.67;5.33;4.00
72307;PMS5003;60257;42.638;23.376;2023-02-01T11:35:32;7.33;6.00;4.33
72307;PMS5003;60257;42.638;23.376;2023-02-01T11:38:09;12.33;9.33;5.67
72307;PMS5003;60257;42.638;23.376;2023-02-01T11:40:38;6.00;5.00;2.00
72307;PMS5003;60257;42.638;23.376;2023-02-01T11:43:08;10.00;10.00;6.67
72307;PMS5003;60257;42.638;23.376;2023-02-01T11:45:45;5.33;5.33;3.67
72307;PMS5003;60257;42.638;23.376;2023-02-01T11:48:19;8.00;8.00;5.00
72307;PMS5003;60257;42.638;23.376;2023-02-01T11:53:36;6.67;5.67;4.00
72307;PMS5003;60257;42.638;23.376;2023-02-01T12:10:32;4.67;4.67;2.00
72307;PMS5003;60257;42.638;23.376;2023-02-01T12:15:57;9.67;9.00;6.00
72307;PMS5003;60257;42.638;23.376;2023-02-01T12:21:12;3.67;3.33;2.00
72307;PMS5003;60257;42.638;23.376;2023-02-01T12:40:12;5.00;5.00;4.00
72307;PMS5003;60257;42.638;23.376;2023-02-01T12:50:53;9.00;8.00;5.00
72307;PMS5003;60257;42.638;23.376;2023-02-01T12:56:12;7.00;7.00;5.00
72307;PMS5003;60257;42.638;23.376;2023-02-01T12:58:46;5.33;5.00;3.00
72307;PMS5003;60257;42.638;23.376;2023-02-01T13:01:18;6.00;6.00;2.33
72307;PMS5003;60257;42.638;23.376;2023-02-01T13:04:01;5.00;5.00;3.00
72307;PMS5003;60257;42.638;23.376;2023-02-01T13:06:53;5.33;5.33;2.67
72307;PMS5003;60257;42.638;23.376;2023-02-01T13:11:59;8.33;6.33;3.00
72307;PMS5003;60257;42.638;23.376;2023-02-01T13:14:43;9.67;6.00;3.67
72307;PMS5003;60257;42.638;23.376;2023-02-01T13:17:15;9.00;7.67;5.00
72307;PMS5003;60257;42.638;23.376;2023-02-01T13:19:48;9.00;7.33;4.33
72307;PMS5003;60257;42.638;23.376;2023-02-01T13:22:25;5.67;5.67;2.00
72307;PMS5003;60257;42.638;23.376;2023-02-01T13:24:59;5.33;3.67;2.33
72307;PMS5003;60257;42.638;23.376;2023-02-01T13:27:28;10.00;9.00;4.33
72307;PMS5003;60257;42.638;23.376;2023-02-01T13:30:04;6.33;6.00;2.33
72307;PMS5003;60257;42.638;23.376;2023-02-01T13:41:32;7.67;6.00;4.33
72307;PMS5003;60257;42.638;23.376;2023-02-01T13:44:14;2.33;2.33;0.00
72307;PMS5003;60257;42.638;23.376;2023-02-01T13:46:46;4.33;4.33;2.00
72307;PMS5003;60257;42.638;23.376;2023-02-01T13:49:23;5.67;5.33;3.00
72307;PMS5003;60257;42.638;23.376;2023-02-01T13:51:57;7.67;7.00;5.00
72307;PMS5003;60257;42.638;23.376;2023-02-01T13:57:00;9.33;5.67;3.00
72307;PMS5003;60257;42.638;23.376;2023-02-01T14:16:14;6.00;6.00;2.00
72307;PMS5003;60257;42.638;23.376;2023-02-01T14:26:48;6.00;5.00;2.67
72307;PMS5003;60257;42.638;23.376;2023-02-01T14:37:03;7.00;6.00;2.67
72307;PMS5003;60257;42.638;23.376;2023-02-01T14:39:36;7.00;7.00;2.00
72307;PMS5003;60257;42.638;23.376;2023-02-01T14:44:50;6.33;6.33;4.33
72307;PMS5003;60257;42.638;23.376;2023-02-01T14:52:45;7.00;6.00;2.00
72307;PMS5003;60257;42.638;23.376;2023-02-01T14:55:21;5.67;5.67;5.00
72307;PMS5003;60257;42.638;23.376;2023-02-01T14:57:54;6.67;6.67;3.00
72307;PMS5003;60257;42.638;23.376;2023-02-01T15:00:24;8.67;8.67;3.67
72307;PMS5003;60257;42.638;23.376;2023-02-01T15:02:52;7.33;7.33;4.33
72307;PMS5003;60257;42.638;23.376;2023-02-01T15:07:55;14.67;14.67;7.67
72307;PMS5003;60257;42.638;23.376;2023-02-01T15:10:25;8.67;8.67;5.00
72307;PMS5003;60257;42.638;23.376;2023-02-01T15:12:53;6.67;6.67;4.00
72307;PMS5003;60257;42.638;23.376;2023-02-01T15:15:19;9.00;9.00;4.00
72307;PMS5003;60257;42.638;23.376;2023-02-01T15:22:59;6.00;6.00;4.33
72307;PMS5003;60257;42.638;23.376;2023-02-01T15:25:31;10.67;9.00;5.67
72307;PMS5003;60257;42.638;23.376;2023-02-01T15:27:59;7.00;7.00;2.33
72307;PMS5003;60257;42.638;23.376;2023-02-01T15:30:26;8.33;8.33;5.00
72307;PMS5003;60257;42.638;23.376;2023-02-01T15:35:41;10.00;7.33;4.00
72307;PMS5003;60257;42.638;23.376;2023-02-01T15:40:55;12.67;12.67;7.33
72307;PMS5003;60257;42.638;23.376;2023-02-01T15:46:22;4.67;4.67;4.00
72307;PMS5003;60257;42.638;23.376;2023-02-01T15:48:56;7.00;6.67;4.00
72307;PMS5003;60257;42.638;23.376;2023-02-01T15:51:22;17.00;15.33;9.00
72307;PMS5003;60257;42.638;23.376;2023-02-01T15:53:57;10.00;7.33;5.00
72307;PMS5003;60257;42.638;23.376;2023-02-01T15:56:26;9.00;9.00;5.67
72307;PMS5003;60257;42.638;23.376;2023-02-01T15:58:57;22.67;22.67;14.33
72307;PMS5003;60257;42.638;23.376;2023-02-01T16:01:26;6.33;5.33;3.33
72307;PMS5003;60257;42.638;23.376;2023-02-01T16:04:45;8.67;8.00;4.00
72307;PMS5003;60257;42.638;23.376;2023-02-01T16:06:56;4.33;1.00;0.00
72307;PMS5003;60257;42.638;23.376;2023-02-01T16:09:41;12.33;10.67;6.00
72307;PMS5003;60257;42.638;23.376;2023-02-01T16:12:31;12.67;11.33;6.00
72307;PMS5003;60257;42.638;23.376;2023-02-01T16:15:11;6.33;6.00;2.00
72307;PMS5003;60257;42.638;23.376;2023-02-01T16:17:37;10.67;10.67;6.00
72307;PMS5003;60257;42.638;23.376;2023-02-01T16:20:02;3.67;3.67;1.00
72307;PMS5003;60257;42.638;23.376;2023-02-01T16:22:28;10.67;9.00;5.00
72307;PMS5003;60257;42.638;23.376;2023-02-01T16:24:54;6.00;6.00;3.33
72307;PMS5003;60257;42.638;23.376;2023-02-01T16:27:19;7.33;7.33;4.33
72307;PMS5003;60257;42.638;23.376;2023-02-01T16:29:47;7.33;7.33;5.00
72307;PMS5003;60257;42.638;23.376;2023-02-01T16:32:15;10.00;9.00;5.00
72307;PMS5003;60257;42.638;23.376;2023-02-01T16:34:43;8.33;6.67;4.00
72307;PMS5003;60257;42.638;23.376;2023-02-01T16:37:14;10.67;9.00;6.00
72307;PMS5003;60257;42.638;23.376;2023-02-01T16:39:43;8.00;8.00;5.00
72307;PMS5003;60257;42.638;23.376;2023-02-01T16:42:12;15.00;14.00;8.67
72307;PMS5003;60257;42.638;23.376;2023-02-01T16:44:39;9.00;8.00;5.00
72307;PMS5003;60257;42.638;23.376;2023-02-01T16:47:26;11.33;11.33;6.00
72307;PMS5003;60257;42.638;23.376;2023-02-01T16:49:50;13.67;12.33;5.00
72307;PMS5003;60257;42.638;23.376;2023-02-01T16:52:21;9.67;9.67;6.00
72307;PMS5003;60257;42.638;23.376;2023-02-01T16:54:48;11.33;8.33;5.00
72307;PMS5003;60257;42.638;23.376;2023-02-01T16:57:15;12.00;10.00;6.00
72307;PMS5003;60257;42.638;23.376;2023-02-01T16:59:42;9.33;8.67;5.00
72307;PMS5003;60257;42.638;23.376;2023-02-01T17:02:18;11.33;6.00;5.00
72307;PMS5003;60257;42.638;23.376;2023-02-01T17:04:44;10.00;10.00;6.00
72307;PMS5003;60257;42.638;23.376;2023-02-01T17:07:19;8.00;8.00;6.00